Archival Weather

Tokyo Intl

Tokyo, Japan (RJTT)

Report from: Tuesday, September 19, 2023 2:30 PM JST
Current time: Sunday, July 14, 2024 9:40 AM JST

Current weather – Weather history – Daily summaries
Weather forecast

Temperature32.0°C (89.6°F)
Heat index37.9°C (100.3°F)
Dew point24.0°C (75.2°F)
Winds 17 kts (8.7 m/s, 19.6 mph) South-Southwest (200°)
Visibility6.2 mi. (10 km)
Clouds Few clouds 3,000 ft. (914 m)
Altimeter29.85 in.Hg (1011 mB)
Relative humidity63 %
Density altitude2,415 ft. (736 m)
Remarks No significant changes expected in the next two hours
Flight conditions Visual Meteorological Conditions
Raw dataRJTT 190530Z 20017KT 9999 FEW030 32/24 Q1011 NOSIG
An error has occurred. This application may no longer respond until reloaded. Reload 🗙